Hlavní strana
METAR-TAF:

METAR-TAF

Letiště :

Vardø, Norsko

zeměpisná šířka: 70-21N, zeměpisná délka: 031-03E, výška: 12 m

Aktuální stav počasí

Zpráva byla vytvořena před 26 minutami, v 12:50 UTC
Západoseverozápadní vítr 5 kt
Teplota 6°C
Vlhkost vzduchu 87%
Tlak 1007 hPa
Viditelnost 10 km a více
Polojasno ve výšce 2600 ft
Oblačno až skoro zataženo ve výšce 5100 ft

METAR: ENSS 191250Z 30005KT 9999 SCT026 BKN051 06/04 Q1007 RMK WIND 500FT 30005KT

Čas: 15:16 (13:16 UTC)


TAF: chybějící

Stav a předpovědi počasí z více než 4 000 letišť (zprávy METAR a TAF).

Červené a žluté tečky na mapě představují dostupné meteorologické stanice.

Když kurzor umístíte na tečku, zobrazí se název stanice.

Pak kliknutím zobrazíte stav a předpověď počasí.

Chcete-li změnit mapu, kliknutím na zelené tlačítko se znaménkem +mapu přiblížíte, kliknutím na zelené tlačítko se znaménkem – mapu oddálíte a kliknutím na zelené šipky přejdete na sousední mapy.


METAR-TAF: